sensor_id;sensor_type;location;lat;lon;timestamp;P1;durP1;ratioP1;P2;durP2;ratioP2
39994;SDS011;25686;51.908;10.418;2023-02-28T00:01:46;6.20;;;3.33;;
39994;SDS011;25686;51.908;10.418;2023-02-28T00:03:47;9.53;;;4.07;;
39994;SDS011;25686;51.908;10.418;2023-02-28T00:05:48;7.17;;;3.67;;
39994;SDS011;25686;51.908;10.418;2023-02-28T00:07:50;8.43;;;3.57;;
39994;SDS011;25686;51.908;10.418;2023-02-28T00:09:51;8.07;;;3.57;;
39994;SDS011;25686;51.908;10.418;2023-02-28T00:11:52;10.10;;;3.37;;
39994;SDS011;25686;51.908;10.418;2023-02-28T00:13:53;7.27;;;3.67;;
39994;SDS011;25686;51.908;10.418;2023-02-28T00:16:00;7.67;;;3.30;;
39994;SDS011;25686;51.908;10.418;2023-02-28T00:18:02;5.83;;;3.50;;
39994;SDS011;25686;51.908;10.418;2023-02-28T00:20:03;7.87;;;3.20;;
39994;SDS011;25686;51.908;10.418;2023-02-28T00:22:08;5.93;;;3.10;;
39994;SDS011;25686;51.908;10.418;2023-02-28T00:24:09;6.57;;;3.40;;
39994;SDS011;25686;51.908;10.418;2023-02-28T00:26:10;7.90;;;3.30;;
39994;SDS011;25686;51.908;10.418;2023-02-28T00:28:11;6.90;;;3.03;;
39994;SDS011;25686;51.908;10.418;2023-02-28T00:30:13;4.03;;;2.70;;
39994;SDS011;25686;51.908;10.418;2023-02-28T00:32:14;5.60;;;2.73;;
39994;SDS011;25686;51.908;10.418;2023-02-28T00:34:15;6.07;;;2.90;;
39994;SDS011;25686;51.908;10.418;2023-02-28T00:36:16;5.80;;;2.83;;
39994;SDS011;25686;51.908;10.418;2023-02-28T00:38:17;7.17;;;3.00;;
39994;SDS011;25686;51.908;10.418;2023-02-28T00:40:18;6.37;;;3.17;;
39994;SDS011;25686;51.908;10.418;2023-02-28T00:42:19;7.07;;;3.70;;
39994;SDS011;25686;51.908;10.418;2023-02-28T00:44:20;9.40;;;4.37;;
39994;SDS011;25686;51.908;10.418;2023-02-28T00:46:21;8.67;;;3.60;;
39994;SDS011;25686;51.908;10.418;2023-02-28T00:48:22;6.80;;;3.20;;
39994;SDS011;25686;51.908;10.418;2023-02-28T00:50:23;8.40;;;2.90;;
39994;SDS011;25686;51.908;10.418;2023-02-28T00:52:24;5.90;;;2.50;;
39994;SDS011;25686;51.908;10.418;2023-02-28T00:54:25;4.67;;;2.50;;
39994;SDS011;25686;51.908;10.418;2023-02-28T00:56:26;5.83;;;3.20;;
39994;SDS011;25686;51.908;10.418;2023-02-28T00:58:27;3.97;;;2.53;;
39994;SDS011;25686;51.908;10.418;2023-02-28T01:00:28;5.77;;;1.90;;
39994;SDS011;25686;51.908;10.418;2023-02-28T01:02:29;2.37;;;1.73;;
39994;SDS011;25686;51.908;10.418;2023-02-28T01:04:30;8.53;;;2.30;;
39994;SDS011;25686;51.908;10.418;2023-02-28T01:06:31;2.90;;;2.17;;
39994;SDS011;25686;51.908;10.418;2023-02-28T01:08:32;4.10;;;2.13;;
39994;SDS011;25686;51.908;10.418;2023-02-28T01:10:33;3.70;;;2.10;;
39994;SDS011;25686;51.908;10.418;2023-02-28T01:12:36;2.40;;;1.93;;
39994;SDS011;25686;51.908;10.418;2023-02-28T01:14:37;4.13;;;1.80;;
39994;SDS011;25686;51.908;10.418;2023-02-28T01:16:38;3.00;;;1.80;;
39994;SDS011;25686;51.908;10.418;2023-02-28T01:18:39;4.10;;;1.70;;
39994;SDS011;25686;51.908;10.418;2023-02-28T01:20:40;4.17;;;1.50;;
39994;SDS011;25686;51.908;10.418;2023-02-28T01:22:41;6.30;;;1.87;;
39994;SDS011;25686;51.908;10.418;2023-02-28T01:24:42;3.20;;;1.90;;
39994;SDS011;25686;51.908;10.418;2023-02-28T01:26:43;4.70;;;1.97;;
39994;SDS011;25686;51.908;10.418;2023-02-28T01:28:44;1.67;;;1.40;;
39994;SDS011;25686;51.908;10.418;2023-02-28T01:30:48;2.83;;;1.53;;
39994;SDS011;25686;51.908;10.418;2023-02-28T01:32:49;3.63;;;1.20;;
39994;SDS011;25686;51.908;10.418;2023-02-28T01:34:53;1.43;;;0.97;;
39994;SDS011;25686;51.908;10.418;2023-02-28T01:36:54;1.97;;;0.90;;
39994;SDS011;25686;51.908;10.418;2023-02-28T01:38:55;1.90;;;1.13;;
39994;SDS011;25686;51.908;10.418;2023-02-28T01:40:56;1.13;;;1.03;;
39994;SDS011;25686;51.908;10.418;2023-02-28T01:42:57;3.97;;;1.10;;
39994;SDS011;25686;51.908;10.418;2023-02-28T01:45:00;2.77;;;1.23;;
39994;SDS011;25686;51.908;10.418;2023-02-28T01:47:01;1.87;;;1.20;;
39994;SDS011;25686;51.908;10.418;2023-02-28T01:49:09;2.93;;;1.20;;
39994;SDS011;25686;51.908;10.418;2023-02-28T01:51:25;2.50;;;1.30;;
39994;SDS011;25686;51.908;10.418;2023-02-28T01:53:29;1.30;;;1.07;;
39994;SDS011;25686;51.908;10.418;2023-02-28T01:55:33;1.97;;;1.03;;
39994;SDS011;25686;51.908;10.418;2023-02-28T01:57:35;2.37;;;1.07;;
39994;SDS011;25686;51.908;10.418;2023-02-28T01:59:45;2.43;;;1.17;;
39994;SDS011;25686;51.908;10.418;2023-02-28T02:01:51;3.10;;;1.23;;
39994;SDS011;25686;51.908;10.418;2023-02-28T02:03:54;2.07;;;1.40;;
39994;SDS011;25686;51.908;10.418;2023-02-28T02:05:55;5.83;;;1.60;;
39994;SDS011;25686;51.908;10.418;2023-02-28T02:08:03;1.90;;;1.30;;
39994;SDS011;25686;51.908;10.418;2023-02-28T02:15:01;3.73;;;2.13;;
39994;SDS011;25686;51.908;10.418;2023-02-28T02:17:14;4.17;;;1.93;;
39994;SDS011;25686;51.908;10.418;2023-02-28T02:22:00;3.53;;;1.70;;
39994;SDS011;25686;51.908;10.418;2023-02-28T02:30:47;3.20;;;1.50;;
39994;SDS011;25686;51.908;10.418;2023-02-28T02:35:12;3.30;;;1.70;;
39994;SDS011;25686;51.908;10.418;2023-02-28T02:37:29;3.43;;;1.57;;
39994;SDS011;25686;51.908;10.418;2023-02-28T02:41:53;2.60;;;1.50;;
39994;SDS011;25686;51.908;10.418;2023-02-28T02:44:11;2.30;;;1.37;;
39994;SDS011;25686;51.908;10.418;2023-02-28T02:46:15;3.60;;;1.63;;
39994;SDS011;25686;51.908;10.418;2023-02-28T02:48:19;2.27;;;1.53;;
39994;SDS011;25686;51.908;10.418;2023-02-28T02:50:26;3.00;;;1.50;;
39994;SDS011;25686;51.908;10.418;2023-02-28T02:52:32;3.33;;;1.87;;
39994;SDS011;25686;51.908;10.418;2023-02-28T02:54:38;2.50;;;1.70;;
39994;SDS011;25686;51.908;10.418;2023-02-28T02:56:42;3.70;;;1.70;;
39994;SDS011;25686;51.908;10.418;2023-02-28T02:58:44;2.30;;;1.80;;
39994;SDS011;25686;51.908;10.418;2023-02-28T03:00:46;2.53;;;1.77;;
39994;SDS011;25686;51.908;10.418;2023-02-28T03:02:49;3.27;;;1.70;;
39994;SDS011;25686;51.908;10.418;2023-02-28T03:04:52;3.80;;;2.00;;
39994;SDS011;25686;51.908;10.418;2023-02-28T03:06:54;2.43;;;1.63;;
39994;SDS011;25686;51.908;10.418;2023-02-28T03:08:55;2.70;;;1.80;;
39994;SDS011;25686;51.908;10.418;2023-02-28T03:10:59;3.07;;;2.07;;
39994;SDS011;25686;51.908;10.418;2023-02-28T03:15:19;2.67;;;1.63;;
39994;SDS011;25686;51.908;10.418;2023-02-28T03:21:38;1.90;;;1.27;;
39994;SDS011;25686;51.908;10.418;2023-02-28T03:23:42;3.77;;;1.33;;
39994;SDS011;25686;51.908;10.418;2023-02-28T03:29:52;2.47;;;1.20;;
39994;SDS011;25686;51.908;10.418;2023-02-28T03:32:00;5.00;;;1.30;;
39994;SDS011;25686;51.908;10.418;2023-02-28T03:34:04;3.77;;;1.30;;
39994;SDS011;25686;51.908;10.418;2023-02-28T03:36:08;2.67;;;1.30;;
39994;SDS011;25686;51.908;10.418;2023-02-28T03:38:14;2.67;;;1.57;;
39994;SDS011;25686;51.908;10.418;2023-02-28T03:40:19;1.93;;;1.20;;
39994;SDS011;25686;51.908;10.418;2023-02-28T03:42:23;3.03;;;1.40;;
39994;SDS011;25686;51.908;10.418;2023-02-28T03:44:45;2.97;;;1.50;;
39994;SDS011;25686;51.908;10.418;2023-02-28T03:46:50;4.70;;;1.70;;
39994;SDS011;25686;51.908;10.418;2023-02-28T03:49:03;4.00;;;1.47;;
39994;SDS011;25686;51.908;10.418;2023-02-28T03:51:06;7.67;;;1.70;;
39994;SDS011;25686;51.908;10.418;2023-02-28T03:55:11;2.83;;;1.60;;
39994;SDS011;25686;51.908;10.418;2023-02-28T03:57:20;3.73;;;1.60;;
39994;SDS011;25686;51.908;10.418;2023-02-28T03:59:32;3.13;;;1.80;;
39994;SDS011;25686;51.908;10.418;2023-02-28T04:01:38;3.50;;;1.70;;
39994;SDS011;25686;51.908;10.418;2023-02-28T04:03:41;4.60;;;1.90;;
39994;SDS011;25686;51.908;10.418;2023-02-28T04:05:52;4.70;;;2.10;;
39994;SDS011;25686;51.908;10.418;2023-02-28T04:07:53;3.60;;;2.00;;
39994;SDS011;25686;51.908;10.418;2023-02-28T04:09:54;4.33;;;1.40;;
39994;SDS011;25686;51.908;10.418;2023-02-28T04:11:55;5.70;;;1.67;;
39994;SDS011;25686;51.908;10.418;2023-02-28T04:13:56;3.70;;;1.90;;
39994;SDS011;25686;51.908;10.418;2023-02-28T04:15:57;3.57;;;1.47;;
39994;SDS011;25686;51.908;10.418;2023-02-28T04:17:58;2.83;;;1.63;;
39994;SDS011;25686;51.908;10.418;2023-02-28T04:19:59;4.20;;;2.03;;
39994;SDS011;25686;51.908;10.418;2023-02-28T04:22:00;7.83;;;2.40;;
39994;SDS011;25686;51.908;10.418;2023-02-28T04:24:01;6.73;;;2.77;;
39994;SDS011;25686;51.908;10.418;2023-02-28T04:26:02;5.83;;;2.60;;
39994;SDS011;25686;51.908;10.418;2023-02-28T04:28:04;6.10;;;2.77;;
39994;SDS011;25686;51.908;10.418;2023-02-28T04:30:05;9.27;;;2.80;;
39994;SDS011;25686;51.908;10.418;2023-02-28T04:32:06;4.87;;;2.30;;
39994;SDS011;25686;51.908;10.418;2023-02-28T04:34:07;5.30;;;2.40;;
39994;SDS011;25686;51.908;10.418;2023-02-28T04:36:08;5.20;;;2.37;;
39994;SDS011;25686;51.908;10.418;2023-02-28T04:38:09;7.03;;;2.53;;
39994;SDS011;25686;51.908;10.418;2023-02-28T04:40:10;6.23;;;2.57;;
39994;SDS011;25686;51.908;10.418;2023-02-28T04:42:11;7.67;;;2.87;;
39994;SDS011;25686;51.908;10.418;2023-02-28T04:44:13;7.40;;;3.03;;
39994;SDS011;25686;51.908;10.418;2023-02-28T04:46:14;6.97;;;2.87;;
39994;SDS011;25686;51.908;10.418;2023-02-28T04:48:15;11.03;;;3.07;;
39994;SDS011;25686;51.908;10.418;2023-02-28T04:50:16;10.03;;;3.50;;
39994;SDS011;25686;51.908;10.418;2023-02-28T04:52:17;5.97;;;3.03;;
39994;SDS011;25686;51.908;10.418;2023-02-28T04:54:19;8.17;;;3.47;;
39994;SDS011;25686;51.908;10.418;2023-02-28T04:56:20;7.83;;;3.30;;
39994;SDS011;25686;51.908;10.418;2023-02-28T04:58:21;6.50;;;3.00;;
39994;SDS011;25686;51.908;10.418;2023-02-28T05:00:23;6.50;;;3.10;;
39994;SDS011;25686;51.908;10.418;2023-02-28T05:02:25;4.83;;;2.47;;
39994;SDS011;25686;51.908;10.418;2023-02-28T05:04:26;4.23;;;2.07;;
39994;SDS011;25686;51.908;10.418;2023-02-28T05:06:27;4.23;;;2.60;;
39994;SDS011;25686;51.908;10.418;2023-02-28T05:08:29;3.43;;;1.80;;
39994;SDS011;25686;51.908;10.418;2023-02-28T05:10:30;2.43;;;1.70;;
39994;SDS011;25686;51.908;10.418;2023-02-28T05:12:31;3.80;;;1.60;;
39994;SDS011;25686;51.908;10.418;2023-02-28T05:14:32;3.83;;;1.80;;
39994;SDS011;25686;51.908;10.418;2023-02-28T05:16:33;4.60;;;2.00;;
39994;SDS011;25686;51.908;10.418;2023-02-28T05:18:34;5.17;;;2.53;;
39994;SDS011;25686;51.908;10.418;2023-02-28T05:20:35;5.33;;;2.27;;
39994;SDS011;25686;51.908;10.418;2023-02-28T05:22:36;6.03;;;2.43;;
39994;SDS011;25686;51.908;10.418;2023-02-28T05:24:37;4.73;;;2.67;;
39994;SDS011;25686;51.908;10.418;2023-02-28T05:26:39;6.77;;;2.50;;
39994;SDS011;25686;51.908;10.418;2023-02-28T05:28:40;6.00;;;2.50;;
39994;SDS011;25686;51.908;10.418;2023-02-28T05:30:41;4.50;;;2.67;;
39994;SDS011;25686;51.908;10.418;2023-02-28T05:32:42;5.23;;;2.93;;
39994;SDS011;25686;51.908;10.418;2023-02-28T05:34:43;5.10;;;2.80;;
39994;SDS011;25686;51.908;10.418;2023-02-28T05:36:44;4.57;;;2.53;;
39994;SDS011;25686;51.908;10.418;2023-02-28T05:38:46;7.03;;;2.90;;
39994;SDS011;25686;51.908;10.418;2023-02-28T05:40:48;5.27;;;3.20;;
39994;SDS011;25686;51.908;10.418;2023-02-28T05:42:49;5.57;;;2.90;;
39994;SDS011;25686;51.908;10.418;2023-02-28T05:44:50;11.40;;;3.27;;
39994;SDS011;25686;51.908;10.418;2023-02-28T05:46:51;6.23;;;3.57;;
39994;SDS011;25686;51.908;10.418;2023-02-28T05:48:52;10.03;;;3.50;;
39994;SDS011;25686;51.908;10.418;2023-02-28T05:50:53;7.13;;;3.73;;
39994;SDS011;25686;51.908;10.418;2023-02-28T05:52:54;7.93;;;3.97;;
39994;SDS011;25686;51.908;10.418;2023-02-28T05:54:55;7.40;;;3.53;;
39994;SDS011;25686;51.908;10.418;2023-02-28T05:56:56;7.00;;;3.93;;
39994;SDS011;25686;51.908;10.418;2023-02-28T05:58:57;7.13;;;3.47;;
39994;SDS011;25686;51.908;10.418;2023-02-28T06:00:59;4.57;;;3.13;;
39994;SDS011;25686;51.908;10.418;2023-02-28T06:03:00;5.80;;;3.10;;
39994;SDS011;25686;51.908;10.418;2023-02-28T06:05:01;5.57;;;3.27;;
39994;SDS011;25686;51.908;10.418;2023-02-28T06:07:02;4.70;;;3.10;;
39994;SDS011;25686;51.908;10.418;2023-02-28T06:09:04;4.47;;;3.00;;
39994;SDS011;25686;51.908;10.418;2023-02-28T06:11:05;5.23;;;3.10;;
39994;SDS011;25686;51.908;10.418;2023-02-28T06:13:06;4.77;;;3.17;;
39994;SDS011;25686;51.908;10.418;2023-02-28T06:15:10;5.97;;;3.40;;
39994;SDS011;25686;51.908;10.418;2023-02-28T06:17:12;4.93;;;3.20;;
39994;SDS011;25686;51.908;10.418;2023-02-28T06:19:13;5.10;;;2.80;;
39994;SDS011;25686;51.908;10.418;2023-02-28T06:21:15;3.37;;;2.70;;
39994;SDS011;25686;51.908;10.418;2023-02-28T06:23:16;7.33;;;2.87;;
39994;SDS011;25686;51.908;10.418;2023-02-28T06:25:17;3.97;;;2.67;;
39994;SDS011;25686;51.908;10.418;2023-02-28T06:27:18;6.97;;;2.90;;
39994;SDS011;25686;51.908;10.418;2023-02-28T06:29:20;5.13;;;2.83;;
39994;SDS011;25686;51.908;10.418;2023-02-28T06:31:21;5.73;;;2.90;;
39994;SDS011;25686;51.908;10.418;2023-02-28T06:33:23;4.63;;;2.80;;
39994;SDS011;25686;51.908;10.418;2023-02-28T06:35:24;7.87;;;3.20;;
39994;SDS011;25686;51.908;10.418;2023-02-28T06:37:24;8.03;;;3.00;;
39994;SDS011;25686;51.908;10.418;2023-02-28T06:39:26;5.23;;;2.70;;
39994;SDS011;25686;51.908;10.418;2023-02-28T06:41:27;6.23;;;2.90;;
39994;SDS011;25686;51.908;10.418;2023-02-28T06:43:28;3.67;;;2.60;;
39994;SDS011;25686;51.908;10.418;2023-02-28T06:45:30;9.03;;;2.80;;
39994;SDS011;25686;51.908;10.418;2023-02-28T06:47:31;5.70;;;3.07;;
39994;SDS011;25686;51.908;10.418;2023-02-28T06:49:32;4.60;;;2.50;;
39994;SDS011;25686;51.908;10.418;2023-02-28T06:51:34;7.53;;;2.77;;
39994;SDS011;25686;51.908;10.418;2023-02-28T06:53:35;3.87;;;2.20;;
39994;SDS011;25686;51.908;10.418;2023-02-28T06:55:37;6.20;;;2.70;;
39994;SDS011;25686;51.908;10.418;2023-02-28T06:57:38;3.97;;;2.33;;
39994;SDS011;25686;51.908;10.418;2023-02-28T06:59:39;4.10;;;2.80;;
39994;SDS011;25686;51.908;10.418;2023-02-28T07:01:40;7.23;;;2.57;;
39994;SDS011;25686;51.908;10.418;2023-02-28T07:03:41;3.83;;;2.30;;
39994;SDS011;25686;51.908;10.418;2023-02-28T07:05:42;4.63;;;2.63;;
39994;SDS011;25686;51.908;10.418;2023-02-28T07:07:43;7.43;;;2.67;;
39994;SDS011;25686;51.908;10.418;2023-02-28T07:09:46;5.73;;;2.70;;
39994;SDS011;25686;51.908;10.418;2023-02-28T07:11:47;4.00;;;2.40;;
39994;SDS011;25686;51.908;10.418;2023-02-28T07:13:49;9.83;;;2.93;;
39994;SDS011;25686;51.908;10.418;2023-02-28T07:15:54;6.33;;;2.90;;
39994;SDS011;25686;51.908;10.418;2023-02-28T07:17:56;4.93;;;2.33;;
39994;SDS011;25686;51.908;10.418;2023-02-28T07:19:57;5.83;;;2.83;;
39994;SDS011;25686;51.908;10.418;2023-02-28T07:21:58;5.67;;;2.60;;
39994;SDS011;25686;51.908;10.418;2023-02-28T07:23:59;5.67;;;2.70;;
39994;SDS011;25686;51.908;10.418;2023-02-28T07:26:00;7.30;;;3.20;;
39994;SDS011;25686;51.908;10.418;2023-02-28T07:28:01;6.73;;;3.20;;
39994;SDS011;25686;51.908;10.418;2023-02-28T07:30:02;7.03;;;3.20;;
39994;SDS011;25686;51.908;10.418;2023-02-28T07:32:03;5.53;;;3.17;;
39994;SDS011;25686;51.908;10.418;2023-02-28T07:34:04;5.03;;;3.47;;
39994;SDS011;25686;51.908;10.418;2023-02-28T07:36:15;5.50;;;3.57;;
39994;SDS011;25686;51.908;10.418;2023-02-28T07:38:17;7.23;;;3.20;;
39994;SDS011;25686;51.908;10.418;2023-02-28T07:40:18;5.97;;;3.30;;
39994;SDS011;25686;51.908;10.418;2023-02-28T07:42:19;5.88;;;3.17;;
39994;SDS011;25686;51.908;10.418;2023-02-28T07:44:21;3.70;;;3.00;;
39994;SDS011;25686;51.908;10.418;2023-02-28T07:46:22;6.88;;;3.10;;
39994;SDS011;25686;51.908;10.418;2023-02-28T07:48:23;5.60;;;3.20;;
39994;SDS011;25686;51.908;10.418;2023-02-28T07:50:24;7.53;;;3.40;;
39994;SDS011;25686;51.908;10.418;2023-02-28T07:52:25;9.65;;;3.45;;
39994;SDS011;25686;51.908;10.418;2023-02-28T07:54:26;7.75;;;4.18;;
39994;SDS011;25686;51.908;10.418;2023-02-28T07:56:27;6.47;;;3.85;;
39994;SDS011;25686;51.908;10.418;2023-02-28T07:58:28;11.77;;;4.10;;
39994;SDS011;25686;51.908;10.418;2023-02-28T08:00:29;6.28;;;3.70;;
39994;SDS011;25686;51.908;10.418;2023-02-28T08:02:31;6.78;;;3.63;;
39994;SDS011;25686;51.908;10.418;2023-02-28T08:04:32;6.25;;;4.30;;
39994;SDS011;25686;51.908;10.418;2023-02-28T08:06:33;6.93;;;3.58;;
39994;SDS011;25686;51.908;10.418;2023-02-28T08:08:35;6.13;;;3.38;;
39994;SDS011;25686;51.908;10.418;2023-02-28T08:10:36;7.30;;;3.65;;
39994;SDS011;25686;51.908;10.418;2023-02-28T08:12:37;4.53;;;3.35;;
39994;SDS011;25686;51.908;10.418;2023-02-28T08:14:38;5.88;;;3.80;;
39994;SDS011;25686;51.908;10.418;2023-02-28T08:16:39;5.45;;;3.47;;
39994;SDS011;25686;51.908;10.418;2023-02-28T08:18:40;5.28;;;3.45;;
39994;SDS011;25686;51.908;10.418;2023-02-28T08:20:41;5.60;;;3.42;;
39994;SDS011;25686;51.908;10.418;2023-02-28T08:22:42;6.85;;;3.40;;
39994;SDS011;25686;51.908;10.418;2023-02-28T08:24:43;5.75;;;3.60;;
39994;SDS011;25686;51.908;10.418;2023-02-28T08:26:44;5.22;;;3.40;;
39994;SDS011;25686;51.908;10.418;2023-02-28T08:28:45;4.93;;;3.20;;
39994;SDS011;25686;51.908;10.418;2023-02-28T08:30:46;5.82;;;3.60;;
39994;SDS011;25686;51.908;10.418;2023-02-28T08:32:47;5.07;;;3.45;;
39994;SDS011;25686;51.908;10.418;2023-02-28T08:34:48;5.82;;;3.78;;
39994;SDS011;25686;51.908;10.418;2023-02-28T08:36:56;6.72;;;3.42;;
39994;SDS011;25686;51.908;10.418;2023-02-28T08:38:57;5.82;;;3.50;;
39994;SDS011;25686;51.908;10.418;2023-02-28T08:41:06;4.68;;;3.20;;
39994;SDS011;25686;51.908;10.418;2023-02-28T08:43:08;4.53;;;3.28;;
39994;SDS011;25686;51.908;10.418;2023-02-28T08:45:09;4.55;;;3.22;;
39994;SDS011;25686;51.908;10.418;2023-02-28T08:47:10;4.57;;;3.00;;
39994;SDS011;25686;51.908;10.418;2023-02-28T08:49:11;5.18;;;3.42;;
39994;SDS011;25686;51.908;10.418;2023-02-28T08:51:13;5.20;;;3.10;;
39994;SDS011;25686;51.908;10.418;2023-02-28T08:53:17;11.70;;;3.40;;
39994;SDS011;25686;51.908;10.418;2023-02-28T08:55:18;5.43;;;3.85;;
39994;SDS011;25686;51.908;10.418;2023-02-28T08:57:19;7.30;;;3.22;;
39994;SDS011;25686;51.908;10.418;2023-02-28T08:59:20;4.80;;;3.65;;
39994;SDS011;25686;51.908;10.418;2023-02-28T09:01:25;5.35;;;3.58;;
39994;SDS011;25686;51.908;10.418;2023-02-28T09:03:27;7.28;;;4.00;;
39994;SDS011;25686;51.908;10.418;2023-02-28T09:05:28;6.53;;;3.75;;
39994;SDS011;25686;51.908;10.418;2023-02-28T09:07:29;6.22;;;3.38;;
39994;SDS011;25686;51.908;10.418;2023-02-28T09:09:30;6.13;;;3.30;;
39994;SDS011;25686;51.908;10.418;2023-02-28T09:11:31;5.50;;;3.35;;
39994;SDS011;25686;51.908;10.418;2023-02-28T09:13:32;6.53;;;3.45;;
39994;SDS011;25686;51.908;10.418;2023-02-28T09:15:33;5.32;;;3.50;;
39994;SDS011;25686;51.908;10.418;2023-02-28T09:17:34;5.50;;;3.30;;
39994;SDS011;25686;51.908;10.418;2023-02-28T09:19:35;4.78;;;3.17;;
39994;SDS011;25686;51.908;10.418;2023-02-28T09:21:36;5.43;;;3.10;;
39994;SDS011;25686;51.908;10.418;2023-02-28T09:23:37;4.85;;;3.70;;
39994;SDS011;25686;51.908;10.418;2023-02-28T09:25:44;3.80;;;3.40;;
39994;SDS011;25686;51.908;10.418;2023-02-28T09:27:46;4.55;;;3.35;;
39994;SDS011;25686;51.908;10.418;2023-02-28T09:29:47;4.28;;;3.50;;
39994;SDS011;25686;51.908;10.418;2023-02-28T09:31:47;4.13;;;3.30;;
39994;SDS011;25686;51.908;10.418;2023-02-28T09:33:50;4.80;;;3.25;;
39994;SDS011;25686;51.908;10.418;2023-02-28T09:35:51;3.80;;;3.05;;
39994;SDS011;25686;51.908;10.418;2023-02-28T09:37:57;3.70;;;3.10;;
39994;SDS011;25686;51.908;10.418;2023-02-28T09:39:58;3.78;;;2.75;;
39994;SDS011;25686;51.908;10.418;2023-02-28T09:41:59;4.35;;;2.90;;
39994;SDS011;25686;51.908;10.418;2023-02-28T09:44:02;3.38;;;2.90;;
39994;SDS011;25686;51.908;10.418;2023-02-28T09:46:21;4.57;;;3.20;;
39994;SDS011;25686;51.908;10.418;2023-02-28T09:48:31;5.20;;;2.97;;
39994;SDS011;25686;51.908;10.418;2023-02-28T09:51:09;4.18;;;3.25;;
39994;SDS011;25686;51.908;10.418;2023-02-28T09:53:02;3.42;;;2.90;;
39994;SDS011;25686;51.908;10.418;2023-02-28T09:55:22;3.17;;;2.30;;
39994;SDS011;25686;51.908;10.418;2023-02-28T09:57:37;3.42;;;2.50;;
39994;SDS011;25686;51.908;10.418;2023-02-28T09:59:51;5.22;;;2.70;;
39994;SDS011;25686;51.908;10.418;2023-02-28T10:02:08;3.08;;;2.78;;
39994;SDS011;25686;51.908;10.418;2023-02-28T10:06:36;2.63;;;2.20;;
39994;SDS011;25686;51.908;10.418;2023-02-28T10:08:51;2.80;;;2.22;;
39994;SDS011;25686;51.908;10.418;2023-02-28T10:10:55;2.28;;;2.03;;
39994;SDS011;25686;51.908;10.418;2023-02-28T10:12:57;3.22;;;2.05;;
39994;SDS011;25686;51.908;10.418;2023-02-28T10:14:59;2.95;;;2.20;;
39994;SDS011;25686;51.908;10.418;2023-02-28T10:17:12;5.13;;;2.03;;
39994;SDS011;25686;51.908;10.418;2023-02-28T10:21:24;2.85;;;2.05;;
39994;SDS011;25686;51.908;10.418;2023-02-28T10:23:32;3.22;;;2.40;;
39994;SDS011;25686;51.908;10.418;2023-02-28T10:25:36;2.10;;;1.90;;
39994;SDS011;25686;51.908;10.418;2023-02-28T10:27:37;2.60;;;1.90;;
39994;SDS011;25686;51.908;10.418;2023-02-28T10:29:38;2.72;;;2.17;;
39994;SDS011;25686;51.908;10.418;2023-02-28T10:31:41;2.55;;;2.00;;
39994;SDS011;25686;51.908;10.418;2023-02-28T10:33:41;2.40;;;1.80;;
39994;SDS011;25686;51.908;10.418;2023-02-28T10:35:42;2.65;;;1.85;;
39994;SDS011;25686;51.908;10.418;2023-02-28T10:37:45;7.45;;;2.30;;
39994;SDS011;25686;51.908;10.418;2023-02-28T10:39:46;3.35;;;2.50;;
39994;SDS011;25686;51.908;10.418;2023-02-28T10:41:47;4.68;;;2.75;;
39994;SDS011;25686;51.908;10.418;2023-02-28T10:43:48;3.80;;;2.40;;
39994;SDS011;25686;51.908;10.418;2023-02-28T10:45:56;6.22;;;2.60;;
39994;SDS011;25686;51.908;10.418;2023-02-28T10:47:59;4.72;;;2.70;;
39994;SDS011;25686;51.908;10.418;2023-02-28T10:50:00;3.15;;;2.40;;
39994;SDS011;25686;51.908;10.418;2023-02-28T10:52:02;3.50;;;2.45;;
39994;SDS011;25686;51.908;10.418;2023-02-28T10:54:03;3.70;;;2.63;;
39994;SDS011;25686;51.908;10.418;2023-02-28T10:58:20;7.53;;;2.60;;
39994;SDS011;25686;51.908;10.418;2023-02-28T11:00:23;3.15;;;2.58;;
39994;SDS011;25686;51.908;10.418;2023-02-28T11:02:32;3.45;;;2.63;;
39994;SDS011;25686;51.908;10.418;2023-02-28T11:04:34;3.40;;;2.90;;
39994;SDS011;25686;51.908;10.418;2023-02-28T11:06:40;4.40;;;3.13;;
39994;SDS011;25686;51.908;10.418;2023-02-28T11:08:44;4.65;;;2.60;;
39994;SDS011;25686;51.908;10.418;2023-02-28T11:10:47;3.35;;;2.60;;
39994;SDS011;25686;51.908;10.418;2023-02-28T11:12:48;4.60;;;2.90;;
39994;SDS011;25686;51.908;10.418;2023-02-28T11:14:54;3.58;;;2.80;;
39994;SDS011;25686;51.908;10.418;2023-02-28T11:17:02;5.15;;;3.05;;
39994;SDS011;25686;51.908;10.418;2023-02-28T11:19:33;3.35;;;2.53;;
39994;SDS011;25686;51.908;10.418;2023-02-28T11:21:36;3.15;;;2.80;;
39994;SDS011;25686;51.908;10.418;2023-02-28T11:23:40;6.47;;;3.20;;
39994;SDS011;25686;51.908;10.418;2023-02-28T11:25:45;3.95;;;2.70;;
39994;SDS011;25686;51.908;10.418;2023-02-28T11:27:57;3.42;;;2.80;;
39994;SDS011;25686;51.908;10.418;2023-02-28T11:30:01;3.67;;;2.85;;
39994;SDS011;25686;51.908;10.418;2023-02-28T11:34:26;3.20;;;2.75;;
39994;SDS011;25686;51.908;10.418;2023-02-28T11:36:28;3.60;;;2.78;;
39994;SDS011;25686;51.908;10.418;2023-02-28T11:38:29;5.60;;;3.15;;
39994;SDS011;25686;51.908;10.418;2023-02-28T11:40:39;3.58;;;2.75;;
39994;SDS011;25686;51.908;10.418;2023-02-28T11:47:35;5.93;;;3.50;;
39994;SDS011;25686;51.908;10.418;2023-02-28T11:51:47;6.95;;;2.92;;
39994;SDS011;25686;51.908;10.418;2023-02-28T11:53:50;6.00;;;3.13;;
39994;SDS011;25686;51.908;10.418;2023-02-28T11:56:01;5.72;;;3.75;;
39994;SDS011;25686;51.908;10.418;2023-02-28T11:58:14;4.05;;;3.40;;
39994;SDS011;25686;51.908;10.418;2023-02-28T12:02:47;6.77;;;3.67;;
39994;SDS011;25686;51.908;10.418;2023-02-28T12:04:53;6.47;;;3.60;;
39994;SDS011;25686;51.908;10.418;2023-02-28T12:07:00;5.60;;;3.50;;
39994;SDS011;25686;51.908;10.418;2023-02-28T12:15:23;5.00;;;3.73;;
39994;SDS011;25686;51.908;10.418;2023-02-28T12:19:32;7.87;;;3.60;;
39994;SDS011;25686;51.908;10.418;2023-02-28T12:26:00;8.83;;;3.60;;
39994;SDS011;25686;51.908;10.418;2023-02-28T12:28:02;4.60;;;3.37;;
39994;SDS011;25686;51.908;10.418;2023-02-28T12:30:05;7.63;;;3.70;;
39994;SDS011;25686;51.908;10.418;2023-02-28T12:32:11;6.83;;;3.30;;
39994;SDS011;25686;51.908;10.418;2023-02-28T12:34:15;4.57;;;3.40;;
39994;SDS011;25686;51.908;10.418;2023-02-28T12:36:19;6.20;;;3.67;;
39994;SDS011;25686;51.908;10.418;2023-02-28T12:38:22;5.53;;;3.53;;
39994;SDS011;25686;51.908;10.418;2023-02-28T12:42:42;5.40;;;3.77;;
39994;SDS011;25686;51.908;10.418;2023-02-28T12:44:51;7.57;;;3.97;;
39994;SDS011;25686;51.908;10.418;2023-02-28T12:46:54;6.77;;;3.80;;
39994;SDS011;25686;51.908;10.418;2023-02-28T12:48:56;7.60;;;4.30;;
39994;SDS011;25686;51.908;10.418;2023-02-28T12:50:58;6.07;;;3.93;;
39994;SDS011;25686;51.908;10.418;2023-02-28T12:53:09;6.40;;;3.73;;
39994;SDS011;25686;51.908;10.418;2023-02-28T12:59:22;6.93;;;4.17;;
39994;SDS011;25686;51.908;10.418;2023-02-28T13:01:36;6.73;;;4.17;;
39994;SDS011;25686;51.908;10.418;2023-02-28T13:03:46;6.63;;;4.07;;
39994;SDS011;25686;51.908;10.418;2023-02-28T13:06:10;7.27;;;4.30;;
39994;SDS011;25686;51.908;10.418;2023-02-28T13:10:37;7.60;;;4.70;;
39994;SDS011;25686;51.908;10.418;2023-02-28T13:12:46;6.47;;;4.50;;
39994;SDS011;25686;51.908;10.418;2023-02-28T13:14:48;7.97;;;4.60;;
39994;SDS011;25686;51.908;10.418;2023-02-28T13:18:50;9.73;;;4.40;;
39994;SDS011;25686;51.908;10.418;2023-02-28T13:20:52;8.90;;;4.47;;
39994;SDS011;25686;51.908;10.418;2023-02-28T13:22:54;7.73;;;4.40;;
39994;SDS011;25686;51.908;10.418;2023-02-28T13:24:56;6.40;;;4.53;;